createdAt,value
2018-05-18T00:02:25.989Z,7.99
2018-05-18T00:04:53.606Z,8.01
2018-05-18T00:07:20.970Z,7.93
2018-05-18T00:09:47.976Z,7.99
2018-05-18T00:12:15.052Z,7.98
2018-05-18T00:14:43.697Z,7.92
2018-05-18T00:17:10.834Z,7.93
2018-05-18T00:19:38.102Z,7.89
2018-05-18T00:22:05.469Z,7.94
2018-05-18T00:24:32.647Z,7.97
2018-05-18T00:26:59.767Z,7.95
2018-05-18T00:29:27.095Z,7.93
2018-05-18T00:31:54.179Z,7.94
2018-05-18T00:34:21.327Z,7.91
2018-05-18T00:36:48.407Z,7.88
2018-05-18T00:39:15.450Z,7.79
2018-05-18T00:41:42.587Z,7.72
2018-05-18T00:44:09.767Z,7.66
2018-05-18T00:46:36.862Z,7.60
2018-05-18T00:49:04.073Z,7.58
2018-05-18T00:51:31.423Z,7.52
2018-05-18T00:53:58.914Z,7.49
2018-05-18T00:56:25.923Z,7.47
2018-05-18T00:58:52.951Z,7.43
2018-05-18T01:01:19.935Z,7.38
2018-05-18T01:03:47.212Z,7.29
2018-05-18T01:06:14.462Z,7.24
2018-05-18T01:08:41.464Z,7.22
2018-05-18T01:11:08.677Z,7.20
2018-05-18T01:13:35.739Z,7.15
2018-05-18T01:16:02.748Z,7.12
2018-05-18T01:18:29.848Z,7.13
2018-05-18T01:20:56.947Z,7.15
2018-05-18T01:23:24.027Z,7.16
2018-05-18T01:25:51.262Z,7.17
2018-05-18T01:28:18.969Z,7.12
2018-05-18T01:30:46.020Z,7.04
2018-05-18T01:33:13.119Z,7.01
2018-05-18T01:35:40.177Z,6.96
2018-05-18T01:38:07.862Z,6.99
2018-05-18T01:40:34.902Z,6.99
2018-05-18T01:43:02.019Z,6.90
2018-05-18T01:45:29.942Z,6.87
2018-05-18T01:47:57.114Z,6.85
2018-05-18T01:50:24.233Z,6.77
2018-05-18T01:52:51.606Z,6.73
2018-05-18T01:55:18.699Z,6.68
2018-05-18T01:57:45.699Z,6.64
2018-05-18T02:00:12.789Z,6.58
2018-05-18T02:02:39.794Z,6.54
2018-05-18T02:05:06.952Z,6.51
2018-05-18T02:07:34.208Z,6.49
2018-05-18T02:10:01.233Z,6.51
2018-05-18T02:12:28.474Z,6.48
2018-05-18T02:14:55.448Z,6.46
2018-05-18T02:17:22.649Z,6.47
2018-05-18T02:19:49.879Z,6.43
2018-05-18T02:22:17.248Z,6.38
2018-05-18T02:24:44.547Z,6.38
2018-05-18T02:27:11.955Z,6.30
2018-05-18T02:29:38.958Z,6.26
2018-05-18T02:32:05.955Z,6.20
2018-05-18T02:34:33.443Z,6.16
2018-05-18T02:37:00.534Z,6.14
2018-05-18T02:39:27.809Z,6.18
2018-05-18T02:41:54.865Z,6.12
2018-05-18T02:44:22.016Z,6.10
2018-05-18T02:46:49.157Z,6.03
2018-05-18T02:49:16.165Z,5.96
2018-05-18T02:51:43.258Z,5.92
2018-05-18T02:54:10.519Z,5.88
2018-05-18T02:56:37.815Z,5.85
2018-05-18T02:59:05.018Z,5.83
2018-05-18T03:01:32.017Z,5.81
2018-05-18T03:03:59.170Z,5.81
2018-05-18T03:06:26.920Z,5.78
2018-05-18T03:09:02.048Z,5.76
2018-05-18T03:11:29.153Z,5.74
2018-05-18T03:13:56.235Z,5.73
2018-05-18T03:16:23.302Z,5.76
2018-05-18T03:18:50.306Z,5.74
2018-05-18T03:21:17.363Z,5.66
2018-05-18T03:23:44.457Z,5.66
2018-05-18T03:26:11.814Z,5.62
2018-05-18T03:28:38.804Z,5.59
2018-05-18T03:31:05.828Z,5.57
2018-05-18T03:33:32.884Z,5.56
2018-05-18T03:35:59.874Z,5.54
2018-05-18T03:38:26.964Z,5.49
2018-05-18T03:40:54.643Z,5.52
2018-05-18T03:43:21.687Z,5.55
2018-05-18T03:45:48.814Z,5.57
2018-05-18T03:48:15.909Z,5.59
2018-05-18T03:50:43.087Z,5.63
2018-05-18T03:53:10.183Z,5.60
2018-05-18T03:55:37.183Z,5.57
2018-05-18T03:58:04.223Z,5.50
2018-05-18T04:00:31.330Z,5.47
2018-05-18T04:03:04.192Z,5.50
2018-05-18T04:05:37.082Z,5.55
2018-05-18T04:08:09.962Z,5.53
2018-05-18T04:10:37.818Z,5.55
2018-05-18T04:13:04.939Z,5.61
2018-05-18T04:15:31.983Z,5.63
2018-05-18T04:17:58.975Z,5.62
2018-05-18T04:20:26.001Z,5.61
2018-05-18T04:22:53.005Z,5.69
2018-05-18T04:25:19.987Z,5.79
2018-05-18T04:27:47.121Z,5.86
2018-05-18T04:30:14.622Z,5.95
2018-05-18T04:32:41.513Z,6.09
2018-05-18T04:35:08.569Z,6.17
2018-05-18T04:37:35.774Z,6.26
2018-05-18T04:40:02.749Z,6.38
2018-05-18T04:42:29.855Z,6.53
2018-05-18T04:44:56.910Z,6.66
2018-05-18T04:47:23.984Z,6.80
2018-05-18T04:49:51.157Z,6.98
2018-05-18T04:52:18.234Z,7.01
2018-05-18T04:54:45.234Z,7.13
2018-05-18T04:57:12.442Z,7.33
2018-05-18T04:59:39.735Z,7.51
2018-05-18T05:02:06.859Z,7.71
2018-05-18T05:04:33.896Z,7.82
2018-05-18T05:07:00.916Z,7.98
2018-05-18T05:09:27.913Z,8.09
2018-05-18T05:11:55.105Z,8.28
2018-05-18T05:14:22.380Z,8.41
2018-05-18T05:16:49.409Z,8.58
2018-05-18T05:19:16.463Z,8.91
2018-05-18T05:21:43.509Z,9.24
2018-05-18T05:24:10.498Z,9.57
2018-05-18T05:26:37.679Z,9.89
2018-05-18T05:29:04.694Z,10.60
2018-05-18T05:31:31.815Z,11.97
2018-05-18T05:33:58.848Z,13.05
2018-05-18T05:36:25.922Z,13.54
2018-05-18T05:38:53.031Z,14.54
2018-05-18T05:41:20.257Z,15.17
2018-05-18T05:43:47.319Z,15.48
2018-05-18T05:46:14.399Z,16.08
2018-05-18T05:48:41.409Z,16.65
2018-05-18T05:51:08.504Z,16.75
2018-05-18T05:53:35.505Z,17.31
2018-05-18T05:56:02.551Z,16.50
2018-05-18T05:58:29.691Z,16.45
2018-05-18T06:00:56.641Z,15.98
2018-05-18T06:03:23.844Z,15.68
2018-05-18T06:05:50.899Z,15.46
2018-05-18T06:08:18.198Z,15.32
2018-05-18T06:10:45.243Z,16.13
2018-05-18T06:13:12.434Z,16.58
2018-05-18T06:15:39.585Z,15.78
2018-05-18T06:18:06.620Z,14.48
2018-05-18T06:20:33.870Z,14.79
2018-05-18T06:23:01.372Z,15.72
2018-05-18T06:25:28.419Z,16.34
2018-05-18T06:27:55.675Z,16.38
2018-05-18T06:30:22.841Z,17.40
2018-05-18T06:32:49.870Z,17.46
2018-05-18T06:35:17.021Z,18.51
2018-05-18T06:37:43.943Z,18.72
2018-05-18T06:40:11.010Z,19.37
2018-05-18T06:42:38.096Z,19.75
2018-05-18T06:45:05.285Z,19.77
2018-05-18T06:47:32.264Z,19.08
2018-05-18T06:49:59.327Z,20.86
2018-05-18T06:52:26.423Z,20.22
2018-05-18T06:54:53.619Z,21.23
2018-05-18T06:57:20.657Z,22.38
2018-05-18T06:59:47.742Z,22.59
2018-05-18T07:02:14.749Z,22.02
2018-05-18T07:04:41.884Z,23.83
2018-05-18T07:07:09.008Z,23.91
2018-05-18T07:09:36.182Z,23.83
2018-05-18T07:12:03.548Z,24.64
2018-05-18T07:14:30.553Z,24.42
2018-05-18T07:16:57.583Z,24.57
2018-05-18T07:19:24.611Z,24.59
2018-05-18T07:21:51.633Z,25.09
2018-05-18T07:24:18.649Z,24.84
2018-05-18T07:26:45.934Z,26.08
2018-05-18T07:29:12.952Z,25.78
2018-05-18T07:31:40.002Z,26.86
2018-05-18T07:34:07.054Z,27.00
2018-05-18T07:36:34.081Z,27.32
2018-05-18T07:39:01.118Z,26.23
2018-05-18T07:41:28.768Z,27.29
2018-05-18T07:43:55.811Z,26.72
2018-05-18T07:46:22.799Z,27.32
2018-05-18T07:48:49.827Z,27.78
2018-05-18T07:51:16.865Z,27.30
2018-05-18T07:53:44.640Z,27.65
2018-05-18T07:56:12.114Z,29.46
2018-05-18T07:58:39.215Z,30.59
2018-05-18T08:01:06.303Z,30.54
2018-05-18T08:03:33.353Z,31.07
2018-05-18T08:06:00.911Z,28.77
2018-05-18T08:08:28.404Z,29.83
2018-05-18T08:10:55.964Z,31.36
2018-05-18T08:13:23.613Z,31.12
2018-05-18T08:15:51.165Z,31.69
2018-05-18T08:18:18.719Z,31.06
2018-05-18T08:20:46.321Z,31.23
2018-05-18T08:23:13.845Z,31.74
2018-05-18T08:25:41.328Z,31.17
2018-05-18T08:28:09.040Z,31.80
2018-05-18T08:30:48.680Z,32.24
2018-05-18T08:33:16.380Z,31.75
2018-05-18T08:35:43.845Z,31.68
2018-05-18T08:38:11.545Z,30.77
2018-05-18T08:40:39.115Z,32.13
2018-05-18T08:43:06.725Z,33.04
2018-05-18T08:45:34.212Z,33.34
2018-05-18T08:48:01.980Z,32.72
2018-05-18T08:50:30.322Z,33.67
2018-05-18T08:52:57.771Z,33.71
2018-05-18T08:55:25.277Z,34.26
2018-05-18T08:57:52.771Z,33.92
2018-05-18T09:00:20.323Z,35.55
2018-05-18T09:02:47.952Z,35.80
2018-05-18T09:05:15.795Z,35.19
2018-05-18T09:07:43.581Z,34.85
2018-05-18T09:10:11.129Z,35.62
2018-05-18T09:12:38.832Z,34.71
2018-05-18T09:15:06.431Z,33.97
2018-05-18T09:17:34.650Z,36.46
2018-05-18T09:20:02.116Z,35.42
2018-05-18T09:22:29.664Z,35.96
2018-05-18T09:24:57.177Z,35.98
2018-05-18T09:27:24.669Z,36.77
2018-05-18T09:29:52.313Z,37.29
2018-05-18T09:32:19.772Z,37.43
2018-05-18T09:34:47.521Z,37.73
2018-05-18T09:37:15.085Z,37.17
2018-05-18T09:39:42.571Z,37.31
2018-05-18T09:42:10.052Z,36.90
2018-05-18T09:44:37.501Z,37.62
2018-05-18T09:47:04.960Z,37.05
2018-05-18T09:49:32.511Z,37.48
2018-05-18T09:52:00.132Z,37.05
2018-05-18T09:54:28.013Z,38.63
2018-05-18T09:56:55.569Z,38.59
2018-05-18T09:59:23.157Z,39.15
2018-05-18T10:01:50.626Z,38.82
2018-05-18T10:04:18.111Z,38.83
2018-05-18T10:06:45.580Z,39.70
2018-05-18T10:09:13.297Z,40.03
2018-05-18T10:11:40.935Z,38.44
2018-05-18T10:14:08.455Z,39.63
2018-05-18T10:16:35.994Z,39.81
2018-05-18T10:19:03.562Z,39.50
2018-05-18T10:21:31.032Z,39.74
2018-05-18T10:23:58.515Z,39.52
2018-05-18T10:26:26.007Z,38.69
2018-05-18T10:28:53.550Z,38.99
2018-05-18T10:31:21.078Z,40.89
2018-05-18T10:33:48.551Z,41.17
2018-05-18T10:36:16.026Z,40.47
2018-05-18T10:38:43.540Z,41.92
2018-05-18T10:41:11.140Z,41.53
2018-05-18T10:43:38.592Z,41.39
2018-05-18T10:46:06.109Z,40.86
2018-05-18T10:48:33.596Z,40.09
2018-05-18T10:51:01.225Z,40.59
2018-05-18T10:53:28.733Z,40.17
2018-05-18T10:55:56.187Z,41.41
2018-05-18T10:58:23.721Z,41.43
2018-05-18T11:00:51.966Z,41.06
2018-05-18T11:03:19.856Z,41.63
2018-05-18T11:05:47.317Z,41.02
2018-05-18T11:08:14.967Z,40.83
2018-05-18T11:10:42.427Z,41.25
2018-05-18T11:13:09.900Z,39.19
2018-05-18T11:15:37.370Z,40.17
2018-05-18T11:18:04.920Z,40.69
2018-05-18T11:20:32.593Z,41.23
2018-05-18T11:23:00.071Z,40.79
2018-05-18T11:25:27.625Z,40.00
2018-05-18T11:27:55.171Z,40.68
2018-05-18T11:30:22.658Z,41.29
2018-05-18T11:32:50.156Z,40.56
2018-05-18T11:35:17.666Z,41.86
2018-05-18T11:37:45.897Z,39.24
2018-05-18T11:40:13.835Z,40.15
2018-05-18T11:42:41.613Z,40.34
2018-05-18T11:45:09.175Z,40.69
2018-05-18T11:47:36.665Z,40.26
2018-05-18T11:50:04.272Z,40.84
2018-05-18T11:52:31.872Z,40.26
2018-05-18T11:54:59.402Z,39.77
2018-05-18T11:57:27.101Z,39.43
2018-05-18T11:59:54.646Z,40.30
2018-05-18T12:02:22.608Z,38.57
2018-05-18T12:04:50.071Z,39.79
2018-05-18T12:07:17.816Z,40.01
2018-05-18T12:09:45.513Z,40.35
2018-05-18T12:12:13.031Z,39.18
2018-05-18T12:14:40.511Z,39.72
2018-05-18T12:17:08.113Z,38.60
2018-05-18T12:19:35.646Z,39.39
2018-05-18T12:22:03.356Z,40.10
2018-05-18T12:24:30.981Z,40.37
2018-05-18T12:26:58.729Z,39.29
2018-05-18T12:29:26.596Z,38.93
2018-05-18T12:31:54.252Z,35.55
2018-05-18T12:34:21.743Z,36.90
2018-05-18T12:36:49.195Z,37.61
2018-05-18T12:39:16.853Z,37.16
2018-05-18T12:41:44.506Z,36.82
2018-05-18T12:44:12.043Z,37.53
2018-05-18T12:46:39.591Z,37.53
2018-05-18T12:49:07.567Z,37.14
2018-05-18T12:51:35.912Z,37.54
2018-05-18T12:54:03.591Z,36.24
2018-05-18T12:56:31.023Z,35.85
2018-05-18T12:58:58.483Z,36.18
2018-05-18T13:01:26.081Z,35.87
2018-05-18T13:03:53.687Z,35.19
2018-05-18T13:06:21.477Z,34.49
2018-05-18T13:08:49.403Z,34.97
2018-05-18T13:11:17.146Z,34.42
2018-05-18T13:13:44.767Z,32.73
2018-05-18T13:16:12.326Z,31.92
2018-05-18T13:18:39.793Z,32.02
2018-05-18T13:21:07.343Z,30.80
2018-05-18T13:23:35.279Z,29.95
2018-05-18T13:26:02.857Z,29.52
2018-05-18T13:28:29.867Z,28.92
2018-05-18T13:30:57.027Z,29.23
2018-05-18T13:33:24.548Z,29.19
2018-05-18T13:35:51.538Z,28.65
2018-05-18T13:38:18.683Z,28.09
2018-05-18T13:40:46.358Z,27.71
2018-05-18T13:43:13.529Z,27.66
2018-05-18T13:45:40.687Z,27.76
2018-05-18T13:48:08.062Z,27.57
2018-05-18T13:50:35.522Z,27.34
2018-05-18T13:53:03.179Z,27.17
2018-05-18T13:55:31.443Z,27.35
2018-05-18T13:57:59.027Z,27.00
2018-05-18T14:00:26.618Z,26.80
2018-05-18T14:02:54.167Z,26.61
2018-05-18T14:05:21.558Z,26.48
2018-05-18T14:07:49.068Z,26.08
2018-05-18T14:10:16.588Z,26.01
2018-05-18T14:12:44.255Z,25.76
2018-05-18T14:15:12.051Z,25.87
2018-05-18T14:17:39.590Z,25.86
2018-05-18T14:20:07.142Z,25.81
2018-05-18T14:22:34.988Z,25.69
2018-05-18T14:25:02.497Z,25.44
2018-05-18T14:27:30.186Z,25.25
2018-05-18T14:29:57.696Z,24.98
2018-05-18T14:32:25.153Z,25.16
2018-05-18T14:34:52.612Z,25.02
2018-05-18T14:37:20.188Z,25.00
2018-05-18T14:39:47.879Z,24.61
2018-05-18T14:42:15.420Z,24.21
2018-05-18T14:44:43.110Z,24.04
2018-05-18T14:47:10.609Z,23.89
2018-05-18T14:49:37.640Z,23.83
2018-05-18T14:52:04.826Z,23.91
2018-05-18T14:54:31.914Z,23.96
2018-05-18T14:56:59.509Z,23.53
2018-05-18T14:59:26.967Z,23.57
2018-05-18T15:01:54.448Z,23.68
2018-05-18T15:04:21.474Z,23.13
2018-05-18T15:06:49.084Z,23.17
2018-05-18T15:09:16.658Z,23.15
2018-05-18T15:11:44.253Z,23.10
2018-05-18T15:14:12.153Z,23.15
2018-05-18T15:16:39.719Z,22.84
2018-05-18T15:19:07.470Z,22.87
2018-05-18T15:21:35.013Z,22.76
2018-05-18T15:24:02.555Z,22.72
2018-05-18T15:26:30.117Z,22.65
2018-05-18T15:28:57.655Z,22.74
2018-05-18T15:31:25.312Z,22.66
2018-05-18T15:33:52.805Z,22.68
2018-05-18T15:36:20.479Z,22.60
2018-05-18T15:38:48.232Z,22.55
2018-05-18T15:41:16.158Z,22.34
2018-05-18T15:43:43.868Z,22.53
2018-05-18T15:46:11.517Z,22.44
2018-05-18T15:48:38.531Z,22.45
2018-05-18T15:51:05.613Z,22.25
2018-05-18T15:53:32.612Z,21.96
2018-05-18T15:55:59.647Z,21.90
2018-05-18T15:58:26.645Z,21.83
2018-05-18T16:00:53.755Z,21.86
2018-05-18T16:03:22.258Z,21.86
2018-05-18T16:05:49.461Z,21.78
2018-05-18T16:08:17.094Z,21.71
2018-05-18T16:10:44.136Z,21.48
2018-05-18T16:13:11.198Z,21.37
2018-05-18T16:15:38.391Z,21.30
2018-05-18T16:18:05.919Z,21.29
2018-05-18T16:20:33.399Z,21.29
2018-05-18T16:23:00.582Z,21.30
2018-05-18T16:25:27.606Z,21.37
2018-05-18T16:27:54.705Z,21.31
2018-05-18T16:30:22.369Z,21.22
2018-05-18T16:32:49.525Z,21.24
2018-05-18T16:35:17.012Z,21.28
2018-05-18T16:37:44.158Z,21.20
2018-05-18T16:40:11.172Z,21.18
2018-05-18T16:42:38.205Z,21.17
2018-05-18T16:45:05.740Z,21.14
2018-05-18T16:47:33.243Z,21.18
2018-05-18T16:50:00.799Z,21.06
2018-05-18T16:52:28.285Z,21.01
2018-05-18T16:54:55.759Z,20.90
2018-05-18T16:57:23.231Z,20.91
2018-05-18T16:59:50.788Z,20.75
2018-05-18T17:02:18.253Z,20.71
2018-05-18T17:04:45.260Z,20.75
2018-05-18T17:07:12.903Z,20.61
2018-05-18T17:09:40.440Z,20.57
2018-05-18T17:12:08.101Z,20.52
2018-05-18T17:14:35.838Z,20.49
2018-05-18T17:17:03.763Z,20.48
2018-05-18T17:19:31.354Z,20.42
2018-05-18T17:21:59.810Z,20.32
2018-05-18T17:24:27.547Z,20.24
2018-05-18T17:26:55.834Z,20.19
2018-05-18T17:29:23.119Z,20.18
2018-05-18T17:31:50.187Z,20.15
2018-05-18T17:34:17.742Z,20.07
2018-05-18T17:36:45.234Z,20.01
2018-05-18T17:39:12.237Z,19.92
2018-05-18T17:41:39.869Z,19.90
2018-05-18T17:44:07.048Z,19.81
2018-05-18T17:46:34.078Z,19.78
2018-05-18T17:49:01.361Z,19.63
2018-05-18T17:51:29.023Z,19.51
2018-05-18T17:53:56.193Z,19.43
2018-05-18T17:56:23.430Z,19.35
2018-05-18T17:58:50.605Z,19.21
2018-05-18T18:01:17.819Z,19.08
2018-05-18T18:03:45.151Z,18.95
2018-05-18T18:06:12.480Z,18.91
2018-05-18T18:08:39.626Z,18.81
2018-05-18T18:11:06.633Z,18.66
2018-05-18T18:13:33.657Z,18.54
2018-05-18T18:16:01.365Z,18.43
2018-05-18T18:18:28.420Z,18.35
2018-05-18T18:20:55.423Z,18.31
2018-05-18T18:23:22.544Z,18.19
2018-05-18T18:25:49.623Z,18.11
2018-05-18T18:28:16.657Z,17.95
2018-05-18T18:30:43.724Z,17.82
2018-05-18T18:33:10.750Z,17.70
2018-05-18T18:35:37.876Z,17.67
2018-05-18T18:38:04.915Z,17.42
2018-05-18T18:40:32.668Z,17.32
2018-05-18T18:42:59.861Z,17.02
2018-05-18T18:45:27.182Z,17.01
2018-05-18T18:47:54.384Z,16.79
2018-05-18T18:50:21.761Z,16.50
2018-05-18T18:52:48.874Z,16.26
2018-05-18T18:55:16.520Z,16.15
2018-05-18T18:57:43.813Z,16.04
2018-05-18T19:00:12.313Z,15.96
2018-05-18T19:02:40.419Z,15.82
2018-05-18T19:05:07.606Z,15.70
2018-05-18T19:07:34.666Z,15.57
2018-05-18T19:10:01.974Z,15.40
2018-05-18T19:12:29.042Z,15.33
2018-05-18T19:14:56.323Z,15.25
2018-05-18T19:17:23.584Z,15.10
2018-05-18T19:19:50.801Z,14.97
2018-05-18T19:22:17.906Z,14.92
2018-05-18T19:24:45.195Z,14.78
2018-05-18T19:27:12.379Z,14.58
2018-05-18T19:29:39.916Z,14.53
2018-05-18T19:32:07.404Z,14.43
2018-05-18T19:34:35.197Z,14.26
2018-05-18T19:37:02.407Z,14.21
2018-05-18T19:39:29.756Z,14.19
2018-05-18T19:41:56.801Z,14.13
2018-05-18T19:44:23.826Z,14.01
2018-05-18T19:46:51.062Z,13.97
2018-05-18T19:49:18.274Z,13.96
2018-05-18T19:51:45.355Z,13.87
2018-05-18T19:54:12.878Z,13.82
2018-05-18T19:56:39.985Z,13.71
2018-05-18T19:59:07.019Z,13.59
2018-05-18T20:01:34.761Z,13.35
2018-05-18T20:04:01.813Z,13.21
2018-05-18T20:06:29.037Z,13.15
2018-05-18T20:08:56.082Z,13.07
2018-05-18T20:11:23.676Z,13.00
2018-05-18T20:13:51.179Z,12.98
2018-05-18T20:16:18.544Z,12.86
2018-05-18T20:18:45.874Z,12.89
2018-05-18T20:21:13.120Z,12.81
2018-05-18T20:23:40.799Z,12.77
2018-05-18T20:26:07.919Z,12.67
2018-05-18T20:28:35.424Z,12.53
2018-05-18T20:31:02.751Z,12.48
2018-05-18T20:33:29.940Z,12.35
2018-05-18T20:35:56.968Z,12.38
2018-05-18T20:38:24.238Z,12.33
2018-05-18T20:40:52.136Z,12.20
2018-05-18T20:43:19.224Z,12.21
2018-05-18T20:45:46.305Z,11.99
2018-05-18T20:48:13.334Z,11.89
2018-05-18T20:50:40.352Z,11.88
2018-05-18T20:53:07.399Z,11.85
2018-05-18T20:55:34.941Z,11.80
2018-05-18T20:58:02.374Z,11.74
2018-05-18T21:00:29.452Z,11.70
2018-05-18T21:02:56.800Z,11.62
2018-05-18T21:05:23.970Z,11.50
2018-05-18T21:07:51.053Z,11.31
2018-05-18T21:10:18.731Z,11.33
2018-05-18T21:12:45.830Z,11.32
2018-05-18T21:15:12.844Z,11.36
2018-05-18T21:17:39.915Z,11.24
2018-05-18T21:20:07.214Z,11.14
2018-05-18T21:22:34.311Z,11.08
2018-05-18T21:25:01.331Z,11.02
2018-05-18T21:27:28.546Z,11.05
2018-05-18T21:29:55.664Z,11.09
2018-05-18T21:32:22.793Z,11.02
2018-05-18T21:34:50.086Z,10.96
2018-05-18T21:37:17.483Z,10.93
2018-05-18T21:39:45.072Z,10.86
2018-05-18T21:42:12.691Z,10.82
2018-05-18T21:44:39.753Z,10.88
2018-05-18T21:47:06.775Z,10.89
2018-05-18T21:49:33.811Z,10.82
2018-05-18T21:52:00.821Z,10.76
2018-05-18T21:54:27.976Z,10.74
2018-05-18T21:56:55.181Z,10.73
2018-05-18T21:59:22.341Z,10.72
2018-05-18T22:01:49.447Z,10.66
2018-05-18T22:04:16.580Z,10.68
2018-05-18T22:06:43.630Z,10.61
2018-05-18T22:09:10.703Z,10.55
2018-05-18T22:11:37.889Z,10.51
2018-05-18T22:14:05.053Z,10.57
2018-05-18T22:16:32.131Z,10.49
2018-05-18T22:18:59.266Z,10.44
2018-05-18T22:21:26.384Z,10.43
2018-05-18T22:23:53.664Z,10.39
2018-05-18T22:26:20.810Z,10.32
2018-05-18T22:28:47.851Z,10.26
2018-05-18T22:31:15.149Z,10.21
2018-05-18T22:33:42.251Z,10.18
2018-05-18T22:36:09.481Z,10.18
2018-05-18T22:38:36.686Z,10.17
2018-05-18T22:41:03.801Z,10.09
2018-05-18T22:43:30.800Z,10.12
2018-05-18T22:45:57.847Z,10.11
2018-05-18T22:48:24.974Z,10.15
2018-05-18T22:50:52.419Z,10.07
2018-05-18T22:53:19.496Z,10.02
2018-05-18T22:55:46.520Z,10.01
2018-05-18T22:58:13.609Z,10.04
2018-05-18T23:00:40.998Z,10.07
2018-05-18T23:03:08.349Z,10.07
2018-05-18T23:05:35.670Z,10.07
2018-05-18T23:08:02.801Z,10.02
2018-05-18T23:10:30.017Z,9.97
2018-05-18T23:12:57.054Z,9.95
2018-05-18T23:15:24.179Z,9.98
2018-05-18T23:17:51.260Z,9.96
2018-05-18T23:20:18.514Z,9.94
2018-05-18T23:22:45.508Z,9.94
2018-05-18T23:25:12.576Z,9.93
2018-05-18T23:27:39.553Z,9.91
2018-05-18T23:30:06.870Z,9.88
2018-05-18T23:32:33.996Z,9.87
2018-05-18T23:35:01.075Z,9.84
2018-05-18T23:37:28.163Z,9.84
2018-05-18T23:39:55.716Z,9.88
2018-05-18T23:42:22.809Z,9.91
2018-05-18T23:44:49.973Z,9.93
2018-05-18T23:47:17.099Z,9.96
2018-05-18T23:49:44.106Z,9.98
2018-05-18T23:52:11.272Z,10.03
2018-05-18T23:54:38.524Z,10.01
2018-05-18T23:57:05.998Z,9.99
2018-05-18T23:59:33.022Z,9.98
